createdAt,value
2022-10-01T00:13:11.322Z,6.10
2022-10-01T00:23:13.788Z,6.00
2022-10-01T00:28:11.429Z,6.00
2022-10-01T00:33:11.351Z,6.00
2022-10-01T00:43:22.606Z,4.30
2022-10-01T00:48:11.401Z,4.30
2022-10-01T00:53:11.726Z,4.90
2022-10-01T00:58:13.535Z,4.90
2022-10-01T01:13:16.216Z,4.70
2022-10-01T01:18:19.876Z,4.70
2022-10-01T01:28:14.822Z,5.30
2022-10-01T01:43:19.464Z,5.20
2022-10-01T01:48:13.760Z,5.20
2022-10-01T02:08:23.167Z,5.80
2022-10-01T02:18:21.224Z,5.60
2022-10-01T02:33:16.140Z,4.50
2022-10-01T02:38:14.445Z,4.50
2022-10-01T02:48:15.739Z,3.60
2022-10-01T02:58:11.755Z,4.50
2022-10-01T03:03:11.792Z,4.50
2022-10-01T03:23:11.757Z,5.30
2022-10-01T03:33:11.788Z,4.70
2022-10-01T03:38:12.726Z,4.70
2022-10-01T03:43:11.837Z,4.30
2022-10-01T03:48:11.921Z,4.30
2022-10-01T03:53:11.825Z,4.70
2022-10-01T03:58:11.872Z,4.70
2022-10-01T04:03:12.995Z,3.80
2022-10-01T04:08:13.585Z,3.80
2022-10-01T04:13:11.879Z,3.00
2022-10-01T04:18:11.882Z,3.00
2022-10-01T04:28:12.853Z,3.50
2022-10-01T04:33:14.100Z,3.00
2022-10-01T04:38:15.723Z,3.00
2022-10-01T04:43:12.246Z,2.80
2022-10-01T04:48:11.989Z,2.80
2022-10-01T04:53:11.991Z,2.80
2022-10-01T05:08:12.111Z,2.70
2022-10-01T05:13:13.798Z,2.60
2022-10-01T05:18:12.053Z,2.60
2022-10-01T05:38:12.137Z,2.60
2022-10-01T05:58:14.484Z,3.00
2022-10-01T06:03:12.447Z,2.60
2022-10-01T06:13:19.846Z,2.60
2022-10-01T06:18:13.594Z,2.60
2022-10-01T06:23:12.847Z,2.40
2022-10-01T06:28:13.503Z,2.40
2022-10-01T06:33:15.229Z,2.60
2022-10-01T06:38:12.718Z,2.60
2022-10-01T06:39:17.911Z,2.60
2022-10-01T06:53:14.267Z,3.30
2022-10-01T06:58:15.078Z,3.30
2022-10-01T07:03:15.580Z,2.80
2022-10-01T07:13:15.662Z,2.70
2022-10-01T07:18:12.526Z,2.70
2022-10-01T07:23:13.821Z,2.60
2022-10-01T07:28:17.519Z,2.60
2022-10-01T07:33:16.524Z,2.90
2022-10-01T07:38:12.549Z,2.90
2022-10-01T07:43:13.485Z,2.20
2022-10-01T07:48:14.068Z,2.20
2022-10-01T07:53:12.899Z,2.00
2022-10-01T07:58:12.601Z,2.00
2022-10-01T08:03:12.644Z,2.60
2022-10-01T08:08:12.515Z,2.60
2022-10-01T08:23:14.545Z,2.60
2022-10-01T08:28:13.531Z,2.60
2022-10-01T08:33:13.560Z,2.40
2022-10-01T08:38:13.140Z,2.40
2022-10-01T08:43:28.614Z,2.10
2022-10-01T08:48:27.924Z,2.10
2022-10-01T09:03:13.881Z,2.10
2022-10-01T09:08:42.475Z,2.10
2022-10-01T09:13:32.559Z,2.10
2022-10-01T09:18:24.761Z,2.10
2022-10-01T09:23:17.381Z,2.00
2022-10-01T09:28:16.043Z,2.00
2022-10-01T09:33:17.585Z,2.30
2022-10-01T09:38:32.672Z,2.30
2022-10-01T09:48:20.033Z,2.50
2022-10-01T09:53:19.059Z,2.00
2022-10-01T09:58:17.409Z,2.00
2022-10-01T10:03:24.455Z,2.20
2022-10-01T10:08:22.740Z,2.20
2022-10-01T10:18:19.103Z,1.90
2022-10-01T10:23:16.368Z,2.20
2022-10-01T10:28:19.542Z,2.20
2022-10-01T10:38:29.431Z,2.10
2022-10-01T10:43:19.991Z,2.30
2022-10-01T10:48:16.285Z,2.30
2022-10-01T10:53:23.276Z,2.10
2022-10-01T10:58:14.358Z,2.10
2022-10-01T11:03:15.976Z,1.70
2022-10-01T11:08:20.095Z,1.70
2022-10-01T11:13:31.732Z,1.70
2022-10-01T11:18:23.429Z,1.70
2022-10-01T11:23:33.171Z,2.00
2022-10-01T11:28:32.983Z,2.00
2022-10-01T11:33:23.490Z,1.70
2022-10-01T11:38:30.463Z,1.70
2022-10-01T11:48:28.758Z,1.60
2022-10-01T11:53:18.073Z,1.80
2022-10-01T11:58:36.286Z,1.80
2022-10-01T12:03:20.479Z,1.50
2022-10-01T12:08:23.257Z,1.50
2022-10-01T12:13:21.382Z,1.70
2022-10-01T12:18:26.429Z,1.70
2022-10-01T12:23:17.604Z,1.70
2022-10-01T12:28:19.916Z,1.70
2022-10-01T12:33:23.598Z,1.40
2022-10-01T12:38:14.287Z,1.40
2022-10-01T12:43:23.196Z,1.90
2022-10-01T12:48:18.407Z,1.90
2022-10-01T12:53:24.279Z,1.90
2022-10-01T12:58:28.432Z,1.90
2022-10-01T13:03:26.869Z,2.30
2022-10-01T13:08:28.440Z,2.30
2022-10-01T13:13:24.531Z,2.00
2022-10-01T13:18:23.323Z,2.00
2022-10-01T13:23:30.350Z,2.20
2022-10-01T13:28:16.788Z,2.20
2022-10-01T13:33:25.178Z,2.40
2022-10-01T13:43:18.079Z,1.80
2022-10-01T13:48:19.356Z,1.80
2022-10-01T13:53:19.605Z,2.00
2022-10-01T13:58:21.878Z,2.00
2022-10-01T14:03:33.629Z,2.00
2022-10-01T14:08:24.166Z,2.00
2022-10-01T14:13:23.658Z,1.60
2022-10-01T14:18:18.521Z,1.60
2022-10-01T14:23:21.199Z,2.40
2022-10-01T14:28:30.173Z,2.40
2022-10-01T14:33:30.806Z,2.00
2022-10-01T14:38:19.485Z,2.00
2022-10-01T14:48:13.637Z,2.00
2022-10-01T14:53:16.798Z,2.00
2022-10-01T14:58:22.129Z,2.00
2022-10-01T15:03:15.304Z,2.00
2022-10-01T15:08:16.642Z,2.00
2022-10-01T15:18:15.757Z,1.80
2022-10-01T15:23:13.840Z,2.10
2022-10-01T15:28:15.254Z,2.10
2022-10-01T15:33:26.720Z,2.40
2022-10-01T15:43:25.397Z,2.70
2022-10-01T15:53:19.662Z,2.10
2022-10-01T15:58:20.715Z,2.10
2022-10-01T16:03:22.242Z,1.60
2022-10-01T16:08:20.836Z,1.60
2022-10-01T16:13:35.571Z,2.00
2022-10-01T16:18:21.393Z,2.00
2022-10-01T16:23:31.745Z,2.20
2022-10-01T16:28:27.071Z,2.20
2022-10-01T16:38:14.462Z,2.90
2022-10-01T16:43:17.509Z,2.00
2022-10-01T17:13:14.794Z,2.60
2022-10-01T17:28:16.894Z,2.60
2022-10-01T17:33:18.101Z,2.50
2022-10-01T18:03:16.985Z,2.30
2022-10-01T18:08:14.095Z,2.30
2022-10-01T18:23:14.193Z,2.60
2022-10-01T18:33:14.201Z,2.20
2022-10-01T18:38:24.408Z,2.20
2022-10-01T18:43:21.707Z,2.20
2022-10-01T18:48:31.481Z,2.20
2022-10-01T18:53:17.820Z,2.30
2022-10-01T18:58:33.684Z,2.30
2022-10-01T19:13:34.163Z,1.90
2022-10-01T19:23:34.200Z,2.30
2022-10-01T19:33:17.771Z,2.40
2022-10-01T19:38:28.691Z,2.40
2022-10-01T19:48:24.308Z,2.40
2022-10-01T19:53:24.696Z,3.10
2022-10-01T19:58:19.237Z,3.10
2022-10-01T20:03:24.401Z,2.80
2022-10-01T20:13:22.639Z,3.30
2022-10-01T20:17:32.492Z,3.30
2022-10-01T20:25:41.640Z,2.70
2022-10-01T20:30:46.325Z,2.70
2022-10-01T20:40:37.954Z,2.80
2022-10-01T20:45:34.407Z,2.40
2022-10-01T20:50:42.813Z,2.40
2022-10-01T21:10:37.875Z,2.70
2022-10-01T21:15:44.286Z,2.40
2022-10-01T21:35:48.105Z,2.60
2022-10-01T21:40:46.618Z,2.60
2022-10-01T21:45:48.450Z,2.60
2022-10-01T21:50:48.856Z,2.60
2022-10-01T22:05:49.341Z,2.20
2022-10-01T22:10:38.536Z,2.20
2022-10-01T22:15:40.063Z,2.20
2022-10-01T22:20:34.073Z,2.20
2022-10-01T22:25:39.097Z,2.50
2022-10-01T22:30:37.748Z,2.50
2022-10-01T22:50:52.163Z,3.00
2022-10-01T22:55:46.834Z,2.90
2022-10-01T23:00:41.997Z,2.90
2022-10-01T23:05:42.694Z,2.60
2022-10-01T23:15:36.867Z,2.60
2022-10-01T23:20:53.443Z,2.60
2022-10-01T23:25:53.444Z,1.80
2022-10-01T23:30:51.394Z,1.80
2022-10-01T23:35:41.801Z,2.20
2022-10-01T23:40:39.210Z,2.20
2022-10-01T23:45:39.165Z,1.90
2022-10-01T23:50:43.978Z,1.90
2022-10-01T23:55:52.539Z,1.90
